Time;durP1;ratioP1;P1;durP2;ratioP2;P2;SDS_P1;SDS_P2;PMS_P1;PMS_P2;Temp;Humidity;BMP_temperature;BMP_pressure;BME280_temperature;BME280_humidity;BME280_pressure;Samples;Min_cycle;Max_cycle;Signal;HPM_P1;HPM_P2
2023/03/19 00:01:56;;;;;;;107.18;77.75;;;27.50;99.90;;;;;;5075497;28;20064;-66
2023/03/19 00:04:25;;;;;;;108.05;78.10;;;27.50;99.90;;;;;;5075410;28;20070;-68
2023/03/19 00:06:52;;;;;;;178.88;136.20;;;27.50;99.90;;;;;;5075460;28;20028;-68
2023/03/19 00:09:19;;;;;;;125.50;99.43;;;27.60;99.90;;;;;;5075294;28;20489;-65
2023/03/19 00:11:47;;;;;;;126.43;95.53;;;27.60;99.90;;;;;;5075337;28;20032;-68
2023/03/19 00:14:14;;;;;;;111.60;83.82;;;27.60;99.90;;;;;;5075335;28;20028;-67
2023/03/19 00:16:41;;;;;;;106.97;85.25;;;27.60;99.90;;;;;;5075169;28;20079;-66
2023/03/19 00:19:08;;;;;;;102.85;80.20;;;27.60;99.90;;;;;;5075193;28;20086;-68
2023/03/19 00:21:35;;;;;;;94.18;72.72;;;27.60;99.90;;;;;;5075130;28;20024;-68
2023/03/19 00:24:02;;;;;;;96.50;71.07;;;27.60;99.90;;;;;;5074797;28;20036;-67
2023/03/19 00:26:31;;;;;;;81.97;68.18;;;27.80;99.90;;;;;;5074984;28;20070;-67
2023/03/19 00:28:58;;;;;;;91.50;64.85;;;27.80;99.90;;;;;;5075374;28;20384;-67
2023/03/19 00:31:26;;;;;;;89.68;67.63;;;27.80;99.90;;;;;;5074846;28;20020;-66
2023/03/19 00:33:52;;;;;;;82.72;65.07;;;27.80;99.90;;;;;;5075071;28;20384;-68
2023/03/19 00:36:19;;;;;;;81.05;62.08;;;27.90;99.90;;;;;;5074953;28;20024;-68
2023/03/19 00:38:46;;;;;;;87.13;65.22;;;27.90;99.90;;;;;;5074657;28;20158;-67
2023/03/19 00:41:13;;;;;;;77.40;62.35;;;28.00;99.90;;;;;;5074698;28;20020;-67
2023/03/19 00:43:40;;;;;;;71.50;52.65;;;28.10;99.90;;;;;;5074851;28;20025;-67
2023/03/19 00:46:06;;;;;;;70.55;50.67;;;28.10;99.90;;;;;;5074598;28;20032;-67
2023/03/19 00:48:33;;;;;;;70.32;51.30;;;28.00;99.90;;;;;;5074443;28;20039;-67
2023/03/19 00:51:04;;;;;;;50.05;38.03;;;28.10;99.90;;;;;;5074582;28;20525;-68
2023/03/19 00:53:30;;;;;;;37.65;25.95;;;28.10;99.90;;;;;;5074712;28;20052;-66
2023/03/19 00:55:57;;;;;;;42.63;32.80;;;28.00;99.90;;;;;;5074731;28;20032;-66
2023/03/19 00:58:24;;;;;;;41.50;27.15;;;28.00;99.90;;;;;;5074434;28;20025;-66
2023/03/19 01:00:53;;;;;;;39.20;29.88;;;28.10;99.90;;;;;;5074216;28;20032;-67
2023/03/19 01:03:20;;;;;;;43.05;31.35;;;28.10;99.90;;;;;;5074306;28;20565;-67
2023/03/19 01:05:48;;;;;;;39.28;25.10;;;28.20;99.90;;;;;;5074370;28;20035;-67
2023/03/19 01:08:17;;;;;;;37.25;27.42;;;28.20;99.90;;;;;;5074224;28;20453;-66
2023/03/19 01:10:45;;;;;;;41.38;26.58;;;28.20;99.90;;;;;;5074208;28;20081;-67
2023/03/19 01:13:12;;;;;;;41.97;25.05;;;28.20;99.90;;;;;;5074252;28;20044;-67
2023/03/19 01:15:40;;;;;;;32.28;21.08;;;28.30;99.90;;;;;;5073986;28;20021;-67
2023/03/19 01:18:10;;;;;;;80.38;58.33;;;28.40;99.90;;;;;;5074096;28;20086;-67
2023/03/19 01:20:38;;;;;;;70.47;42.45;;;28.40;99.90;;;;;;5073851;28;20029;-66
2023/03/19 01:23:05;;;;;;;47.42;28.17;;;28.50;99.90;;;;;;5073646;28;20020;-68
2023/03/19 01:25:33;;;;;;;41.80;23.38;;;28.50;99.90;;;;;;5073835;28;20028;-67
2023/03/19 01:27:59;;;;;;;46.88;26.67;;;28.50;99.90;;;;;;5073917;28;20025;-68
2023/03/19 01:30:26;;;;;;;81.00;51.22;;;28.50;99.90;;;;;;5073636;28;20064;-68
2023/03/19 01:32:53;;;;;;;102.22;77.38;;;28.50;99.90;;;;;;5073831;28;20013;-68
2023/03/19 01:35:19;;;;;;;116.07;94.15;;;28.60;99.90;;;;;;5073229;28;20104;-68
2023/03/19 01:37:46;;;;;;;78.10;60.95;;;28.60;99.90;;;;;;5073277;28;20041;-68
2023/03/19 01:40:14;;;;;;;152.15;118.50;;;28.60;99.90;;;;;;5073633;28;20044;-69
2023/03/19 01:43:13;;;;;;;302.42;269.33;;;28.70;99.90;;;;;;5073794;28;20059;-69
2023/03/19 01:45:41;;;;;;;146.18;120.15;;;28.70;99.90;;;;;;5073633;28;20111;-68
2023/03/19 01:48:28;;;;;;;41.50;27.80;;;28.80;99.90;;;;;;5073541;28;20020;-68
2023/03/19 01:50:55;;;;;;;51.53;29.85;;;28.90;99.90;;;;;;5073512;28;20032;-68
2023/03/19 01:53:30;;;;;;;62.13;37.50;;;28.90;99.90;;;;;;5073483;28;20024;-68
2023/03/19 01:56:03;;;;;;;32.85;20.08;;;29.00;99.90;;;;;;5073443;28;20029;-68
2023/03/19 01:58:29;;;;;;;;;;;29.00;99.90;;;;;;5073710;28;20025;-68
2023/03/19 02:00:57;;;;;;;41.40;24.77;;;28.90;99.90;;;;;;5073452;28;19905;-69
2023/03/19 02:03:26;;;;;;;42.30;23.20;;;29.00;99.90;;;;;;5073579;28;20432;-68
2023/03/19 02:05:54;;;;;;;63.22;33.13;;;29.00;99.90;;;;;;5073405;28;20031;-68
2023/03/19 02:08:23;;;;;;;150.40;72.25;;;29.10;99.90;;;;;;5073063;28;20028;-69
2023/03/19 02:10:54;;;;;;;67.78;35.63;;;29.20;99.90;;;;;;5073468;28;20066;-68
2023/03/19 02:13:22;;;;;;;138.82;73.35;;;29.20;99.90;;;;;;5073172;28;20055;-67
2023/03/19 02:15:50;;;;;;;84.95;45.00;;;29.20;99.90;;;;;;5073093;28;20017;-65
2023/03/19 02:18:17;;;;;;;32.00;19.13;;;29.30;99.90;;;;;;5073245;28;20025;-65
2023/03/19 02:20:56;;;;;;;25.58;14.98;;;29.40;99.90;;;;;;5073086;28;20052;-65
2023/03/19 02:23:31;;;;;;;39.28;19.80;;;29.50;99.90;;;;;;5073096;28;20021;-65
2023/03/19 02:26:04;;;;;;;43.05;25.10;;;29.40;99.90;;;;;;5073227;28;20498;-65
2023/03/19 02:28:32;;;;;;;37.17;18.02;;;29.40;99.90;;;;;;5072870;28;20086;-64
2023/03/19 02:31:00;;;;;;;49.38;24.17;;;29.50;99.90;;;;;;5072997;28;20021;-65
2023/03/19 02:33:26;;;;;;;21.70;13.25;;;29.40;99.90;;;;;;5072996;28;20028;-65
2023/03/19 02:35:54;;;;;;;24.63;15.05;;;29.50;99.90;;;;;;5072953;28;20464;-65
2023/03/19 02:38:22;;;;;;;30.67;15.10;;;29.40;99.90;;;;;;5072845;28;20040;-65
2023/03/19 02:41:09;;;;;;;32.88;17.45;;;29.50;99.90;;;;;;5073018;28;20099;-65
2023/03/19 02:43:38;;;;;;;30.00;14.45;;;29.40;99.90;;;;;;5072961;28;20039;-65
2023/03/19 02:46:08;;;;;;;39.72;21.65;;;29.50;99.90;;;;;;5074791;28;20150;-64
2023/03/19 02:48:36;;;;;;;47.35;26.05;;;29.40;99.90;;;;;;5076858;28;20310;-66
2023/03/19 02:51:03;;;;;;;34.80;19.05;;;29.50;99.90;;;;;;5076991;28;20039;-66
2023/03/19 02:53:30;;;;;;;35.22;17.73;;;29.40;99.90;;;;;;5076789;28;20407;-63
2023/03/19 02:55:56;;;;;;;32.83;17.13;;;29.50;99.90;;;;;;5076764;28;20037;-66
2023/03/19 02:58:23;;;;;;;21.85;13.93;;;29.50;99.90;;;;;;5076669;28;20100;-66
2023/03/19 03:00:50;;;;;;;24.45;12.52;;;29.50;99.90;;;;;;5076682;28;20104;-66
2023/03/19 03:03:17;;;;;;;19.33;10.60;;;29.50;99.90;;;;;;5076869;28;20032;-66
2023/03/19 03:05:43;;;;;;;53.30;30.38;;;29.60;99.90;;;;;;5076662;28;20465;-66
2023/03/19 03:08:10;;;;;;;39.45;23.38;;;29.60;99.90;;;;;;5076441;28;20025;-66
2023/03/19 03:10:37;;;;;;;41.03;25.33;;;29.60;99.90;;;;;;5076225;28;20025;-66
2023/03/19 03:13:04;;;;;;;35.17;21.05;;;29.60;99.90;;;;;;5076430;28;20017;-68
2023/03/19 03:15:31;;;;;;;38.00;22.70;;;29.60;99.90;;;;;;5076353;28;20458;-68
2023/03/19 03:17:57;;;;;;;29.90;17.75;;;29.60;99.90;;;;;;5076174;28;20028;-68
2023/03/19 03:20:24;;;;;;;37.38;17.60;;;29.60;99.90;;;;;;5076440;28;20051;-69
2023/03/19 03:22:50;;;;;;;23.38;14.88;;;29.70;99.90;;;;;;5076333;28;20108;-68
2023/03/19 03:25:17;;;;;;;21.67;13.05;;;29.70;99.90;;;;;;5076012;28;20025;-68
2023/03/19 03:27:44;;;;;;;54.55;24.58;;;29.70;99.90;;;;;;5076306;28;20030;-67
2023/03/19 03:30:10;;;;;;;33.80;18.13;;;29.70;99.90;;;;;;5076324;28;20021;-69
2023/03/19 03:32:38;;;;;;;36.80;19.38;;;29.80;99.90;;;;;;5075912;28;20028;-68
2023/03/19 03:35:07;;;;;;;21.30;11.93;;;29.80;99.90;;;;;;5076046;28;20083;-68
2023/03/19 03:37:33;;;;;;;27.92;14.43;;;29.80;99.90;;;;;;5075768;28;20043;-68
2023/03/19 03:40:08;;;;;;;35.78;20.60;;;29.80;99.90;;;;;;5075770;28;20078;-68
2023/03/19 03:42:37;;;;;;;23.58;14.18;;;29.80;99.90;;;;;;5075900;28;20020;-68
2023/03/19 03:45:04;;;;;;;23.15;14.30;;;29.90;99.90;;;;;;5075762;28;20029;-67
2023/03/19 03:47:31;;;;;;;21.33;12.27;;;29.90;99.90;;;;;;5075863;28;20242;-68
2023/03/19 03:49:57;;;;;;;24.10;12.52;;;29.90;99.90;;;;;;5075763;28;20032;-69
2023/03/19 03:52:24;;;;;;;18.90;10.20;;;29.90;99.90;;;;;;5075767;28;20028;-68
2023/03/19 03:54:50;;;;;;;39.47;26.25;;;29.90;99.90;;;;;;5079178;28;20426;-68
2023/03/19 03:57:17;;;;;;;35.80;23.60;;;29.90;99.90;;;;;;5083291;28;20016;-68
2023/03/19 03:59:43;;;;;;;58.40;40.75;;;30.00;99.90;;;;;;5083595;28;20428;-68
2023/03/19 04:02:10;;;;;;;99.43;69.47;;;30.00;99.90;;;;;;5075601;28;20025;-68
2023/03/19 04:04:37;;;;;;;45.88;28.65;;;30.00;99.90;;;;;;5086949;28;20043;-67
2023/03/19 04:07:03;;;;;;;22.52;15.00;;;30.10;99.90;;;;;;5094409;28;20056;-68
2023/03/19 04:09:30;;;;;;;24.30;15.68;;;30.10;99.90;;;;;;5075167;28;20029;-65
2023/03/19 04:11:56;;;;;;;22.95;14.90;;;30.20;99.90;;;;;;5075434;28;20374;-65
2023/03/19 04:14:23;;;;;;;23.25;12.43;;;30.20;99.90;;;;;;5075342;28;20024;-66
2023/03/19 04:16:50;;;;;;;39.35;23.42;;;30.30;99.90;;;;;;5075138;28;20028;-67
2023/03/19 04:19:16;;;;;;;53.83;28.45;;;30.30;99.90;;;;;;5075214;28;20029;-67
2023/03/19 04:21:43;;;;;;;29.00;16.02;;;30.30;99.90;;;;;;5075122;28;20024;-67
2023/03/19 04:24:10;;;;;;;20.20;11.60;;;30.30;99.90;;;;;;5074899;28;20512;-66
2023/03/19 04:26:37;;;;;;;20.15;11.77;;;30.30;99.90;;;;;;5075117;28;20060;-66
2023/03/19 04:29:04;;;;;;;21.98;10.57;;;30.30;99.90;;;;;;5075225;28;20390;-67
2023/03/19 04:31:32;;;;;;;21.02;11.90;;;30.40;99.90;;;;;;5074790;28;20029;-67
2023/03/19 04:33:59;;;;;;;18.80;11.10;;;30.40;99.90;;;;;;5074849;28;20024;-67
2023/03/19 04:36:25;;;;;;;21.27;13.75;;;30.50;99.90;;;;;;5074794;28;20024;-66
2023/03/19 04:38:52;;;;;;;31.85;18.98;;;30.50;99.90;;;;;;5074577;28;20549;-67
2023/03/19 04:41:19;;;;;;;32.83;22.45;;;30.50;99.90;;;;;;5074728;28;20040;-67
2023/03/19 04:43:45;;;;;;;37.70;23.13;;;30.50;99.90;;;;;;5074978;28;20033;-66
2023/03/19 04:46:12;;;;;;;41.25;28.10;;;30.50;99.90;;;;;;5074521;28;20036;-65
2023/03/19 04:48:38;;;;;;;35.15;22.83;;;30.50;99.90;;;;;;5074712;28;20032;-66
2023/03/19 04:51:08;;;;;;;36.83;23.85;;;30.50;99.90;;;;;;5074492;28;20412;-65
2023/03/19 04:53:36;;;;;;;22.17;13.95;;;30.50;99.90;;;;;;5074345;28;20099;-66
2023/03/19 04:56:03;;;;;;;26.77;15.30;;;30.50;99.90;;;;;;5074363;28;20020;-65
2023/03/19 04:58:30;;;;;;;30.45;18.15;;;30.60;99.90;;;;;;5074497;28;20021;-65
2023/03/19 05:00:56;;;;;;;30.00;15.75;;;30.70;99.90;;;;;;5074116;28;20032;-65
2023/03/19 05:03:23;;;;;;;24.80;15.50;;;30.70;99.90;;;;;;5091587;28;20043;-65
2023/03/19 05:05:49;;;;;;;30.83;17.80;;;30.70;99.90;;;;;;5094524;28;20102;-65
2023/03/19 05:08:16;;;;;;;24.50;15.15;;;30.70;99.90;;;;;;5094067;28;20491;-64
2023/03/19 05:10:43;;;;;;;18.13;12.57;;;30.60;99.90;;;;;;5093850;28;20424;-65
2023/03/19 05:13:09;;;;;;;20.85;13.35;;;30.60;99.90;;;;;;5094475;28;20043;-65
2023/03/19 05:15:37;;;;;;;20.80;13.48;;;30.70;99.90;;;;;;5094157;28;20048;-64
2023/03/19 05:18:04;;;;;;;23.80;14.15;;;30.70;99.90;;;;;;5094187;28;20423;-65
2023/03/19 05:20:30;;;;;;;23.83;13.70;;;30.70;99.90;;;;;;5094427;28;20024;-67
2023/03/19 05:22:57;;;;;;;17.60;12.52;;;30.70;99.90;;;;;;5089711;28;20441;-66
2023/03/19 05:25:23;;;;;;;19.15;12.40;;;30.80;99.90;;;;;;5083636;28;20052;-68
2023/03/19 05:27:50;;;;;;;21.70;12.95;;;30.80;99.90;;;;;;5073948;28;20025;-68
2023/03/19 05:30:17;;;;;;;22.73;13.55;;;30.90;99.90;;;;;;5090349;28;20024;-68
2023/03/19 05:32:45;;;;;;;21.30;13.20;;;30.90;99.90;;;;;;5093920;28;20076;-68
2023/03/19 05:35:13;;;;;;;20.25;12.93;;;30.90;99.90;;;;;;5094028;28;20110;-68
2023/03/19 05:37:40;;;;;;;20.73;13.30;;;30.90;99.90;;;;;;5088398;28;20051;-68
2023/03/19 05:40:07;;;;;;;21.33;12.27;;;30.90;99.90;;;;;;5083909;28;20054;-69
2023/03/19 05:42:34;;;;;;;16.42;11.23;;;30.90;99.90;;;;;;5088151;28;20486;-70
2023/03/19 05:45:01;;;;;;;18.20;9.70;;;30.90;99.90;;;;;;5078226;28;20024;-69
2023/03/19 05:47:27;;;;;;;16.45;9.40;;;30.90;99.90;;;;;;5092094;28;20048;-70
2023/03/19 05:49:55;;;;;;;21.25;12.43;;;31.00;99.90;;;;;;5080235;28;20399;-68
2023/03/19 05:52:21;;;;;;;24.55;15.60;;;31.20;99.90;;;;;;5080706;28;20441;-69
2023/03/19 05:54:49;;;;;;;33.28;18.20;;;31.30;99.90;;;;;;5085836;28;20024;-70
2023/03/19 05:57:16;;;;;;;63.17;37.15;;;31.20;99.90;;;;;;5082170;28;20538;-67
2023/03/19 05:59:42;;;;;;;35.03;24.60;;;31.10;99.90;;;;;;5083078;28;20067;-69
2023/03/19 06:02:09;;;;;;;28.20;18.50;;;31.00;99.90;;;;;;5083742;28;20024;-67
2023/03/19 06:04:36;;;;;;;28.63;18.65;;;31.00;99.90;;;;;;5081937;28;20094;-67
2023/03/19 06:07:03;;;;;;;20.52;15.15;;;31.00;99.90;;;;;;5083844;28;20020;-69
2023/03/19 06:09:29;;;;;;;27.98;15.93;;;31.00;99.90;;;;;;5086512;28;20393;-68
2023/03/19 06:11:56;;;;;;;38.42;23.67;;;31.00;99.90;;;;;;5081761;28;20020;-68
2023/03/19 06:14:23;;;;;;;41.38;22.52;;;31.00;99.90;;;;;;5083441;28;20017;-69
2023/03/19 06:16:50;;;;;;;24.23;14.63;;;31.00;99.90;;;;;;5082468;28;20024;-68
2023/03/19 06:19:16;;;;;;;28.10;16.75;;;30.90;99.90;;;;;;5089421;28;20402;-70
2023/03/19 06:21:43;;;;;;;29.75;17.77;;;30.90;99.90;;;;;;5082119;28;20025;-69
2023/03/19 06:24:09;;;;;;;36.45;26.27;;;30.80;99.90;;;;;;5083282;28;20051;-70
2023/03/19 06:26:36;;;;;;;48.50;31.70;;;30.70;99.90;;;;;;5085101;28;20025;-70
2023/03/19 06:29:03;;;;;;;31.15;19.20;;;30.70;99.90;;;;;;5086812;28;20082;-70
2023/03/19 06:31:30;;;;;;;33.95;18.52;;;30.60;99.90;;;;;;5093114;28;20020;-70
2023/03/19 06:33:56;;;;;;;43.90;27.23;;;30.60;99.90;;;;;;5092982;28;20024;-71
2023/03/19 06:36:23;;;;;;;26.42;14.27;;;30.60;99.90;;;;;;5093412;28;20031;-71
2023/03/19 06:38:50;;;;;;;18.80;13.07;;;30.50;99.90;;;;;;5091846;28;20399;-69
2023/03/19 06:41:16;;;;;;;56.25;40.10;;;30.50;99.90;;;;;;5092509;28;20028;-70
2023/03/19 06:43:43;;;;;;;27.33;18.33;;;30.50;99.90;;;;;;5091788;28;20032;-69
2023/03/19 06:46:09;;;;;;;26.58;13.50;;;30.60;99.90;;;;;;5092508;28;20016;-70
2023/03/19 06:48:36;;;;;;;27.05;14.05;;;30.50;99.90;;;;;;5092471;28;20051;-70
2023/03/19 06:51:03;;;;;;;26.95;16.55;;;30.40;99.90;;;;;;5092500;28;20028;-70
2023/03/19 06:53:29;;;;;;;34.65;17.73;;;30.30;99.90;;;;;;5092680;28;20105;-67
2023/03/19 06:55:56;;;;;;;19.83;13.00;;;30.40;99.90;;;;;;5092755;28;20108;-71
2023/03/19 06:58:23;;;;;;;17.02;11.80;;;30.40;99.90;;;;;;5092957;28;20024;-70
2023/03/19 07:00:49;;;;;;;18.25;11.10;;;30.40;99.90;;;;;;5092967;28;20020;-71
2023/03/19 07:03:16;;;;;;;18.50;10.90;;;30.40;99.90;;;;;;5093222;28;20557;-69
2023/03/19 07:05:42;;;;;;;16.42;11.15;;;30.50;99.90;;;;;;5092928;28;20102;-70
2023/03/19 07:08:11;;;;;;;17.38;11.40;;;30.50;99.90;;;;;;5092958;28;20016;-70
2023/03/19 07:10:40;;;;;;;16.50;11.25;;;30.60;99.90;;;;;;5092768;28;20522;-70
2023/03/19 07:13:06;;;;;;;23.15;12.00;;;30.50;99.90;;;;;;5092905;28;20354;-70
2023/03/19 07:15:33;;;;;;;18.05;12.27;;;30.60;99.90;;;;;;5086211;28;20054;-70
2023/03/19 07:18:00;;;;;;;25.25;13.25;;;30.60;99.90;;;;;;5085062;28;20040;-70
2023/03/19 07:20:28;;;;;;;23.85;14.02;;;30.60;99.90;;;;;;5081208;28;20449;-69
2023/03/19 07:22:54;;;;;;;21.45;13.27;;;30.60;99.90;;;;;;5082309;28;20031;-69
2023/03/19 07:25:21;;;;;;;25.27;14.65;;;30.60;99.90;;;;;;5080489;28;20048;-70
2023/03/19 07:27:48;;;;;;;22.25;14.88;;;30.60;99.90;;;;;;5081054;28;20018;-70
2023/03/19 07:30:15;;;;;;;20.67;13.05;;;30.60;99.90;;;;;;5082118;28;20123;-70
2023/03/19 07:32:42;;;;;;;25.98;16.98;;;30.60;99.90;;;;;;5081490;28;20388;-71
2023/03/19 07:35:09;;;;;;;24.55;14.60;;;30.50;99.90;;;;;;5084317;28;20016;-71
2023/03/19 07:37:36;;;;;;;23.67;14.77;;;30.60;99.90;;;;;;5085428;28;20032;-70
2023/03/19 07:40:03;;;;;;;18.08;11.70;;;30.60;99.90;;;;;;5083899;28;20063;-71
2023/03/19 07:42:30;;;;;;;21.17;12.02;;;30.60;99.90;;;;;;5084137;28;20072;-70
2023/03/19 07:44:56;;;;;;;22.15;12.65;;;30.60;99.90;;;;;;5085545;28;20024;-69
2023/03/19 07:47:23;;;;;;;22.00;10.50;;;30.60;99.90;;;;;;5083869;28;20044;-71
2023/03/19 07:49:49;;;;;;;35.25;11.70;;;30.50;99.90;;;;;;5086159;28;20032;-70
2023/03/19 07:52:17;;;;;;;18.92;11.45;;;30.60;99.90;;;;;;5087164;28;20016;-71
2023/03/19 07:54:44;;;;;;;18.75;13.18;;;30.60;99.90;;;;;;5083750;28;20017;-72
2023/03/19 07:57:11;;;;;;;20.50;12.40;;;30.60;99.90;;;;;;5081547;28;20013;-71
2023/03/19 07:59:37;;;;;;;19.67;13.13;;;30.50;99.90;;;;;;5075398;28;20411;-71
2023/03/19 08:02:05;;;;;;;19.35;11.93;;;30.50;99.90;;;;;;5083850;28;20393;-71
2023/03/19 08:04:31;;;;;;;17.60;12.93;;;30.50;99.90;;;;;;5083373;28;20492;-71
2023/03/19 08:06:58;;;;;;;16.75;11.38;;;30.60;99.90;;;;;;5085189;28;20026;-71
2023/03/19 08:09:25;;;;;;;27.58;11.10;;;30.60;99.90;;;;;;5083723;28;20063;-71
2023/03/19 08:11:51;;;;;;;15.30;9.00;;;30.60;99.90;;;;;;5089277;28;20553;-72
2023/03/19 08:14:21;;;;;;;15.15;8.20;;;30.60;99.90;;;;;;5095587;28;20052;-72
2023/03/19 08:16:48;;;;;;;18.73;9.63;;;30.50;99.90;;;;;;5095289;28;20047;-72
2023/03/19 08:19:15;;;;;;;15.00;9.25;;;30.60;99.90;;;;;;5095393;28;20077;-72
2023/03/19 08:21:42;;;;;;;11.32;8.68;;;30.70;99.90;;;;;;5095434;28;20020;-71
2023/03/19 08:24:09;;;;;;;13.38;8.23;;;30.70;99.90;;;;;;5095106;28;20032;-71
2023/03/19 08:26:36;;;;;;;19.02;9.68;;;30.70;99.90;;;;;;5095482;28;20020;-72
2023/03/19 08:29:03;;;;;;;13.93;9.20;;;30.70;99.90;;;;;;5095029;28;20035;-72
2023/03/19 08:31:30;;;;;;;13.43;9.05;;;30.60;99.90;;;;;;5094728;28;20027;-72
2023/03/19 08:33:58;;;;;;;16.90;9.38;;;30.60;99.90;;;;;;5095202;28;20024;-72
2023/03/19 08:36:26;;;;;;;13.80;8.63;;;30.70;99.90;;;;;;5095332;28;20051;-72
2023/03/19 08:38:53;;;;;;;16.23;8.88;;;30.70;99.90;;;;;;5094674;28;20052;-71
2023/03/19 08:41:21;;;;;;;12.35;7.60;;;30.70;99.90;;;;;;5095116;28;20107;-71
2023/03/19 08:43:48;;;;;;;10.52;7.07;;;30.70;99.90;;;;;;5094921;28;20045;-72
2023/03/19 08:46:15;;;;;;;11.85;7.90;;;30.70;99.90;;;;;;5094639;28;20035;-71
2023/03/19 08:48:41;;;;;;;14.13;8.23;;;30.70;99.90;;;;;;5094761;28;20397;-71
2023/03/19 08:51:09;;;;;;;12.82;8.63;;;30.70;99.90;;;;;;5094787;28;20020;-72
2023/03/19 08:53:36;;;;;;;12.35;7.88;;;30.80;99.90;;;;;;5094613;28;20016;-73
2023/03/19 08:56:05;;;;;;;12.57;9.07;;;30.90;99.90;;;;;;5094837;28;20024;-72
2023/03/19 08:58:31;;;;;;;16.42;10.45;;;30.90;99.90;;;;;;5087216;28;20028;-70
2023/03/19 09:01:10;;;;;;;19.65;11.07;;;30.80;99.90;;;;;;5089096;28;20092;-70
2023/03/19 09:03:38;;;;;;;18.83;11.00;;;30.80;99.90;;;;;;5072347;22;20114;-69
2023/03/19 09:06:07;;;;;;;15.80;10.02;;;30.70;99.90;;;;;;5051871;28;20465;-69
2023/03/19 09:08:35;;;;;;;16.77;10.20;;;30.70;99.90;;;;;;5050000;28;20394;-70
2023/03/19 09:11:02;;;;;;;16.40;8.65;;;30.70;99.90;;;;;;5050131;28;20028;-69
2023/03/19 09:13:28;;;;;;;17.15;8.90;;;30.70;99.90;;;;;;5052391;28;20151;-69
2023/03/19 09:15:55;;;;;;;19.42;8.85;;;30.70;99.90;;;;;;5048853;28;20441;-69
2023/03/19 09:18:24;;;;;;;14.50;7.90;;;30.60;99.90;;;;;;5051016;28;20021;-70
2023/03/19 09:20:53;;;;;;;14.48;9.60;;;30.60;99.90;;;;;;5052449;28;20021;-71
2023/03/19 09:23:21;;;;;;;27.05;16.52;;;30.60;99.90;;;;;;5049043;28;20021;-70
2023/03/19 09:25:48;;;;;;;74.43;49.60;;;30.60;99.90;;;;;;5051904;28;20021;-70
2023/03/19 09:28:15;;;;;;;41.97;31.40;;;30.60;99.90;;;;;;5051668;28;20066;-68
2023/03/19 09:30:44;;;;;;;42.35;31.15;;;30.60;99.90;;;;;;5051749;28;20021;-69
2023/03/19 09:33:11;;;;;;;61.28;43.70;;;30.60;99.90;;;;;;5051882;28;20017;-68
2023/03/19 09:35:38;;;;;;;91.13;58.33;;;30.70;99.90;;;;;;5049674;28;20094;-68
2023/03/19 09:38:05;;;;;;;24.58;13.55;;;30.70;99.90;;;;;;5049295;28;20025;-70
2023/03/19 09:40:40;;;;;;;21.60;15.90;;;30.60;99.90;;;;;;5050090;28;20028;-70
2023/03/19 09:43:28;;;;;;;31.52;15.27;;;30.70;99.90;;;;;;5052026;28;20056;-68
2023/03/19 09:45:54;;;;;;;23.30;17.73;;;30.70;99.90;;;;;;5051537;28;20025;-69
2023/03/19 09:48:41;;;;;;;36.78;21.10;;;30.70;99.90;;;;;;5051484;28;20079;-70
2023/03/19 09:51:14;;;;;;;32.38;21.17;;;30.70;99.90;;;;;;5051118;28;20029;-69
2023/03/19 09:54:03;;;;;;;39.60;24.48;;;30.70;99.90;;;;;;5051291;28;20400;-69
2023/03/19 09:56:32;;;;;;;34.20;19.70;;;30.70;99.90;;;;;;5050835;28;20065;-71
2023/03/19 09:59:00;;;;;;;27.80;17.90;;;30.70;99.90;;;;;;5051364;28;20220;-70
2023/03/19 10:01:38;;;;;;;37.10;22.42;;;30.70;99.90;;;;;;5051684;28;20433;-71
2023/03/19 10:04:07;;;;;;;35.75;24.13;;;30.70;99.90;;;;;;5050130;28;20029;-72
2023/03/19 10:06:36;;;;;;;54.10;31.35;;;30.70;99.90;;;;;;5049553;28;20025;-71
2023/03/19 10:09:22;;;;;;;47.72;25.63;;;30.80;99.90;;;;;;5051547;28;20075;-70
2023/03/19 10:12:00;;;;;;;39.97;20.48;;;30.80;99.90;;;;;;5048591;28;20020;-69
2023/03/19 10:14:45;;;;;;;44.45;25.25;;;30.80;99.90;;;;;;5049925;28;20449;-69
2023/03/19 10:17:18;;;;;;;54.85;28.92;;;30.80;99.90;;;;;;5050311;28;20036;-71
2023/03/19 10:19:54;;;;;;;41.60;24.70;;;30.80;99.90;;;;;;5049641;28;20033;-72
2023/03/19 10:22:29;;;;;;;59.28;32.35;;;30.80;99.90;;;;;;5050995;28;20049;-71
2023/03/19 10:24:57;;;;;;;38.55;22.35;;;30.80;99.90;;;;;;5051834;28;20029;-70
2023/03/19 10:27:28;;;;;;;41.40;25.08;;;30.70;99.90;;;;;;5049450;28;20033;-71
2023/03/19 10:29:56;;;;;;;50.30;32.22;;;30.70;99.90;;;;;;5050106;28;20082;-70
2023/03/19 10:32:41;;;;;;;71.28;43.28;;;30.70;99.90;;;;;;5052786;28;20152;-70
2023/03/19 10:35:36;;;;;;;39.42;26.40;;;30.70;99.90;;;;;;5050848;28;20017;-70
2023/03/19 10:38:24;;;;;;;46.25;29.65;;;30.70;99.90;;;;;;5032354;28;20398;-70
2023/03/19 10:41:17;;;;;;;52.58;36.80;;;30.70;99.90;;;;;;5050276;28;20059;-70
2023/03/19 10:43:55;;;;;;;55.13;37.72;;;30.60;99.90;;;;;;5051996;28;20028;-72
2023/03/19 10:46:22;;;;;;;74.38;58.55;;;30.70;99.90;;;;;;5051547;28;20092;-70
2023/03/19 10:48:49;;;;;;;81.50;62.58;;;30.70;99.90;;;;;;5051905;28;20032;-71
2023/03/19 10:51:24;;;;;;;78.70;65.18;;;30.70;99.90;;;;;;5052767;28;20024;-71
2023/03/19 10:53:56;;;;;;;66.38;52.20;;;30.70;99.90;;;;;;5047823;28;20082;-71
2023/03/19 10:56:29;;;;;;;46.83;33.22;;;30.60;99.90;;;;;;5051246;28;20052;-70
2023/03/19 10:58:59;;;;;;;38.47;26.75;;;30.60;99.90;;;;;;5050387;28;20033;-69
2023/03/19 11:01:39;;;;;;;33.85;19.77;;;30.50;99.90;;;;;;5050708;28;20167;-70
2023/03/19 11:04:27;;;;;;;27.35;16.73;;;30.50;99.90;;;;;;5051133;28;20490;-70
2023/03/19 11:07:02;;;;;;;35.53;25.13;;;30.40;99.90;;;;;;5047720;28;20041;-69
2023/03/19 11:09:39;;;;;;;36.00;21.58;;;30.30;99.90;;;;;;5053710;28;20028;-70
2023/03/19 11:12:07;;;;;;;75.68;46.83;;;30.30;99.90;;;;;;5057032;28;20017;-71
2023/03/19 11:14:43;;;;;;;49.83;29.65;;;30.30;99.90;;;;;;5052655;28;20021;-69
2023/03/19 11:17:13;;;;;;;30.42;20.17;;;30.00;99.90;;;;;;5053415;28;20104;-66
2023/03/19 11:19:42;;;;;;;24.17;14.40;;;29.90;99.90;;;;;;5054227;28;20045;-69
2023/03/19 11:22:11;;;;;;;24.38;12.30;;;29.80;99.90;;;;;;5050277;28;20052;-69
2023/03/19 11:24:41;;;;;;;16.77;10.68;;;29.70;99.90;;;;;;5053129;28;20180;-69
2023/03/19 11:27:10;;;;;;;30.55;12.27;;;29.60;99.90;;;;;;5053731;28;20021;-68
2023/03/19 11:29:40;;;;;;;37.80;22.80;;;29.50;99.90;;;;;;5055236;28;20036;-69
2023/03/19 11:32:10;;;;;;;56.75;38.72;;;29.40;99.90;;;;;;5052162;28;20078;-68
2023/03/19 11:34:40;;;;;;;29.15;13.75;;;29.40;99.90;;;;;;5052740;28;20028;-68
2023/03/19 11:37:18;;;;;;;27.10;16.88;;;29.20;99.90;;;;;;5054996;28;20070;-69
2023/03/19 11:40:19;;;;;;;25.88;17.60;;;29.10;99.90;;;;;;5051363;28;20104;-69
2023/03/19 11:43:27;;;;;;;27.80;16.52;;;29.20;99.90;;;;;;5052285;28;20525;-69
2023/03/19 11:46:07;;;;;;;26.35;14.55;;;29.20;99.90;;;;;;5053269;28;20143;-68
2023/03/19 11:48:48;;;;;;;24.17;13.52;;;29.20;99.90;;;;;;5053069;28;20025;-68
2023/03/19 11:51:27;;;;;;;28.20;16.50;;;29.20;99.90;;;;;;5053546;28;20024;-69
2023/03/19 11:54:29;;;;;;;28.33;15.40;;;29.10;99.90;;;;;;5053157;28;20029;-69
2023/03/19 11:57:01;;;;;;;28.88;15.40;;;29.10;99.90;;;;;;5053456;28;20032;-69
2023/03/19 11:59:28;;;;;;;24.77;12.77;;;29.10;99.90;;;;;;5051886;28;20079;-69
2023/03/19 12:02:16;;;;;;;21.52;12.75;;;29.10;99.90;;;;;;5054166;28;20044;-68
2023/03/19 12:04:44;;;;;;;36.00;17.13;;;29.10;99.90;;;;;;5054179;28;20017;-68
2023/03/19 12:07:16;;;;;;;44.35;24.63;;;29.10;99.90;;;;;;5051211;28;20397;-71
2023/03/19 12:09:52;;;;;;;38.60;22.70;;;29.10;99.90;;;;;;5052016;28;20128;-70
2023/03/19 12:12:33;;;;;;;34.03;16.60;;;29.10;99.90;;;;;;5052214;28;20025;-70
2023/03/19 12:14:59;;;;;;;27.35;13.65;;;29.00;99.90;;;;;;5053384;28;20028;-69
2023/03/19 12:17:45;;;;;;;27.73;13.82;;;29.00;99.90;;;;;;5054020;28;20019;-71
2023/03/19 12:20:21;;;;;;;30.35;14.75;;;28.90;99.90;;;;;;5052770;28;20021;-70
2023/03/19 12:22:56;;;;;;;24.75;13.90;;;28.90;99.90;;;;;;5053996;28;20078;-70
2023/03/19 12:25:41;;;;;;;29.58;12.38;;;28.90;99.90;;;;;;5051759;28;20033;-70
2023/03/19 12:28:30;;;;;;;20.25;11.18;;;28.90;99.90;;;;;;5052107;28;20069;-70
2023/03/19 12:31:07;;;;;;;21.50;11.68;;;28.90;99.90;;;;;;5052681;28;20570;-69
2023/03/19 12:33:35;;;;;;;26.67;11.65;;;28.90;99.90;;;;;;5053635;28;20029;-71
2023/03/19 12:36:07;;;;;;;29.83;17.30;;;28.80;99.90;;;;;;5051007;28;20060;-71
2023/03/19 12:38:37;;;;;;;;;;;28.80;99.90;;;;;;5054081;28;20036;-68
2023/03/19 12:41:09;;;;;;;33.42;19.35;;;28.90;99.90;;;;;;5050978;28;19928;-70